createdAt,value
2018-02-16T00:00:46.475Z,17.90
2018-02-16T00:03:13.965Z,19.15
2018-02-16T00:05:41.420Z,15.48
2018-02-16T00:08:08.922Z,12.82
2018-02-16T00:10:36.434Z,13.73
2018-02-16T00:13:03.907Z,13.05
2018-02-16T00:15:31.385Z,13.20
2018-02-16T00:17:58.902Z,13.80
2018-02-16T00:20:26.371Z,13.95
2018-02-16T00:22:53.845Z,12.80
2018-02-16T00:25:21.309Z,13.20
2018-02-16T00:27:48.790Z,12.37
2018-02-16T00:30:16.255Z,11.88
2018-02-16T00:32:43.701Z,12.70
2018-02-16T00:35:11.185Z,13.07
2018-02-16T00:37:38.666Z,12.00
2018-02-16T00:40:06.897Z,10.85
2018-02-16T00:42:34.347Z,10.95
2018-02-16T00:45:01.850Z,11.00
2018-02-16T00:47:29.318Z,10.82
2018-02-16T00:49:56.787Z,9.95
2018-02-16T00:52:24.258Z,11.25
2018-02-16T00:54:51.730Z,11.27
2018-02-16T00:57:19.214Z,11.68
2018-02-16T00:59:46.722Z,16.37
2018-02-16T01:02:14.921Z,15.70
2018-02-16T01:04:42.402Z,14.57
2018-02-16T01:07:09.874Z,14.55
2018-02-16T01:09:37.363Z,15.93
2018-02-16T01:12:04.877Z,17.50
2018-02-16T01:14:32.346Z,15.90
2018-02-16T01:17:00.586Z,14.77
2018-02-16T01:19:28.069Z,15.10
2018-02-16T01:21:56.310Z,16.27
2018-02-16T01:24:23.799Z,16.70
2018-02-16T01:26:51.300Z,15.48
2018-02-16T01:29:18.789Z,17.95
2018-02-16T01:31:46.280Z,14.82
2018-02-16T01:34:14.519Z,14.40
2018-02-16T01:36:41.995Z,16.75
2018-02-16T01:39:09.466Z,14.85
2018-02-16T01:41:36.925Z,16.08
2018-02-16T01:44:05.157Z,14.43
2018-02-16T01:46:32.637Z,15.20
2018-02-16T01:49:00.095Z,14.57
2018-02-16T01:51:27.546Z,14.35
2018-02-16T01:53:55.029Z,15.30
2018-02-16T01:56:23.253Z,15.98
2018-02-16T01:58:50.721Z,16.15
2018-02-16T02:01:18.202Z,16.20
2018-02-16T02:03:45.652Z,16.27
2018-02-16T02:06:13.118Z,16.60
2018-02-16T02:08:40.596Z,14.45
2018-02-16T02:11:08.834Z,14.20
2018-02-16T02:13:36.307Z,14.65
2018-02-16T02:16:03.805Z,15.52
2018-02-16T02:18:31.277Z,13.18
2018-02-16T02:20:58.761Z,15.05
2018-02-16T02:23:26.227Z,14.60
2018-02-16T02:25:53.731Z,13.68
2018-02-16T02:28:21.193Z,13.98
2018-02-16T02:30:48.682Z,15.13
2018-02-16T02:33:16.140Z,13.80
2018-02-16T02:35:43.633Z,15.07
2018-02-16T02:38:11.108Z,14.00
2018-02-16T02:40:38.606Z,15.75
2018-02-16T02:43:06.116Z,12.75
2018-02-16T02:45:34.358Z,16.77
2018-02-16T02:48:01.891Z,15.60
2018-02-16T02:50:29.365Z,16.17
2018-02-16T02:52:56.848Z,16.25
2018-02-16T02:55:24.317Z,19.05
2018-02-16T02:57:51.794Z,17.30
2018-02-16T03:00:19.273Z,14.85
2018-02-16T03:02:46.758Z,15.98
2018-02-16T03:05:14.225Z,15.80
2018-02-16T03:07:41.691Z,16.23
2018-02-16T03:10:09.160Z,15.50
2018-02-16T03:12:36.680Z,14.05
2018-02-16T03:15:04.151Z,15.48
2018-02-16T03:17:31.657Z,15.40
2018-02-16T03:19:59.125Z,16.50
2018-02-16T03:22:26.582Z,15.75
2018-02-16T03:24:54.040Z,15.23
2018-02-16T03:27:21.536Z,18.10
2018-02-16T03:29:49.009Z,19.23
2018-02-16T03:32:16.486Z,17.48
2018-02-16T03:34:43.987Z,19.12
2018-02-16T03:37:11.450Z,17.23
2018-02-16T03:39:38.921Z,17.40
2018-02-16T03:42:06.416Z,16.08
2018-02-16T03:44:33.877Z,17.33
2018-02-16T03:47:01.347Z,18.65
2018-02-16T03:49:28.833Z,19.35
2018-02-16T03:51:56.303Z,19.90
2018-02-16T03:54:23.762Z,19.40
2018-02-16T03:56:51.234Z,18.60
2018-02-16T03:59:18.730Z,18.98
2018-02-16T04:01:46.209Z,18.60
2018-02-16T04:04:13.725Z,19.42
2018-02-16T04:06:41.227Z,19.05
2018-02-16T04:09:08.726Z,19.02
2018-02-16T04:11:36.235Z,18.85
2018-02-16T04:14:03.686Z,18.20
2018-02-16T04:16:31.165Z,17.50
2018-02-16T04:18:58.643Z,17.98
2018-02-16T04:21:26.096Z,17.48
2018-02-16T04:23:53.583Z,17.48
2018-02-16T04:26:21.819Z,17.83
2018-02-16T04:28:49.271Z,20.05
2018-02-16T04:31:16.734Z,19.08
2018-02-16T04:33:44.202Z,19.12
2018-02-16T04:36:11.694Z,20.35
2018-02-16T04:38:39.170Z,19.52
2018-02-16T04:41:06.675Z,18.30
2018-02-16T04:43:34.160Z,18.62
2018-02-16T04:46:01.650Z,18.90
2018-02-16T04:48:29.125Z,16.75
2018-02-16T04:50:56.610Z,19.27
2018-02-16T04:53:24.089Z,19.80
2018-02-16T04:55:52.325Z,17.98
2018-02-16T04:58:19.793Z,19.75
2018-02-16T05:00:47.258Z,18.85
2018-02-16T05:03:14.719Z,18.48
2018-02-16T05:05:42.946Z,20.05
2018-02-16T05:08:10.429Z,16.60
2018-02-16T05:10:37.889Z,17.73
2018-02-16T05:13:05.368Z,17.98
2018-02-16T05:15:32.849Z,17.15
2018-02-16T05:18:00.317Z,17.98
2018-02-16T05:20:27.788Z,18.05
2018-02-16T05:22:55.246Z,19.00
2018-02-16T05:25:22.731Z,16.85
2018-02-16T05:27:50.978Z,18.87
2018-02-16T05:30:18.461Z,17.70
2018-02-16T05:32:45.922Z,16.20
2018-02-16T05:35:13.389Z,17.10
2018-02-16T05:37:40.885Z,17.75
2018-02-16T05:40:08.378Z,17.35
2018-02-16T05:42:35.895Z,16.48
2018-02-16T05:45:03.379Z,18.15
2018-02-16T05:47:30.825Z,19.83
2018-02-16T05:49:58.300Z,17.80
2018-02-16T05:52:25.779Z,18.25
2018-02-16T05:54:53.250Z,17.35
2018-02-16T05:57:22.034Z,17.48
2018-02-16T05:59:49.788Z,16.30
2018-02-16T06:02:17.258Z,18.50
2018-02-16T06:04:44.743Z,17.12
2018-02-16T06:07:12.208Z,18.15
2018-02-16T06:09:39.712Z,21.02
2018-02-16T06:12:07.179Z,18.02
2018-02-16T06:14:34.662Z,17.45
2018-02-16T06:17:02.889Z,17.17
2018-02-16T06:19:30.381Z,18.37
2018-02-16T06:21:58.621Z,19.45
2018-02-16T06:24:26.093Z,17.02
2018-02-16T06:26:53.557Z,17.80
2018-02-16T06:29:21.020Z,19.00
2018-02-16T06:31:49.369Z,17.98
2018-02-16T06:34:16.909Z,17.23
2018-02-16T06:36:44.383Z,18.62
2018-02-16T06:39:11.889Z,17.30
2018-02-16T06:41:40.133Z,15.98
2018-02-16T06:44:07.600Z,17.90
2018-02-16T06:46:35.078Z,19.10
2018-02-16T06:49:03.312Z,17.35
2018-02-16T06:51:30.786Z,19.42
2018-02-16T06:53:58.251Z,19.37
2018-02-16T06:56:25.719Z,18.05
2018-02-16T06:58:53.227Z,19.37
2018-02-16T07:01:20.717Z,19.60
2018-02-16T07:03:48.216Z,18.80
2018-02-16T07:06:15.689Z,16.80
2018-02-16T07:08:43.201Z,17.83
2018-02-16T07:11:10.698Z,19.42
2018-02-16T07:13:38.191Z,19.25
2018-02-16T07:16:05.693Z,19.87
2018-02-16T07:18:33.164Z,18.12
2018-02-16T07:21:00.632Z,19.77
2018-02-16T07:23:28.089Z,20.40
2018-02-16T07:25:55.550Z,19.65
2018-02-16T07:28:23.017Z,19.60
2018-02-16T07:30:50.514Z,19.92
2018-02-16T07:33:17.992Z,18.15
2018-02-16T07:35:45.449Z,18.77
2018-02-16T07:38:12.928Z,20.37
2018-02-16T07:40:40.403Z,20.85
2018-02-16T07:43:07.928Z,20.33
2018-02-16T07:45:35.450Z,20.52
2018-02-16T07:48:02.925Z,22.27
2018-02-16T07:50:30.439Z,21.75
2018-02-16T07:52:57.913Z,22.52
2018-02-16T07:55:25.400Z,22.95
2018-02-16T07:57:52.864Z,23.65
2018-02-16T08:00:20.335Z,24.30
2018-02-16T08:02:47.816Z,23.67
2018-02-16T08:05:15.312Z,23.10
2018-02-16T08:07:42.797Z,22.77
2018-02-16T08:10:11.055Z,24.77
2018-02-16T08:12:38.533Z,25.17
2018-02-16T08:15:05.978Z,23.17
2018-02-16T08:17:33.445Z,24.25
2018-02-16T08:20:00.937Z,22.35
2018-02-16T08:22:28.393Z,25.27
2018-02-16T08:24:55.889Z,25.58
2018-02-16T08:27:23.364Z,24.80
2018-02-16T08:29:50.817Z,23.98
2018-02-16T08:32:18.315Z,25.37
2018-02-16T08:34:45.796Z,26.58
2018-02-16T08:37:13.253Z,24.52
2018-02-16T08:39:40.741Z,24.48
2018-02-16T08:42:08.206Z,23.55
2018-02-16T08:44:35.693Z,24.08
2018-02-16T08:47:03.154Z,22.62
2018-02-16T08:49:30.634Z,23.17
2018-02-16T08:51:58.123Z,23.17
2018-02-16T08:54:25.602Z,25.42
2018-02-16T08:56:53.068Z,23.08
2018-02-16T08:59:20.534Z,24.98
2018-02-16T09:01:48.670Z,21.95
2018-02-16T09:04:16.139Z,22.33
2018-02-16T09:06:43.594Z,20.85
2018-02-16T09:09:11.830Z,20.33
2018-02-16T09:11:39.286Z,19.10
2018-02-16T09:14:06.762Z,19.92
2018-02-16T09:16:34.226Z,19.40
2018-02-16T09:19:01.695Z,21.67
2018-02-16T09:21:29.160Z,21.10
2018-02-16T09:23:56.969Z,20.52
2018-02-16T09:26:24.451Z,20.20
2018-02-16T09:28:51.929Z,20.80
2018-02-16T09:31:20.196Z,21.73
2018-02-16T09:33:47.675Z,18.12
2018-02-16T09:36:15.443Z,18.62
2018-02-16T09:38:46.813Z,19.65
2018-02-16T09:41:14.274Z,18.55
2018-02-16T09:43:41.730Z,21.55
2018-02-16T09:46:09.206Z,19.55
2018-02-16T09:48:36.703Z,17.60
2018-02-16T09:51:04.946Z,17.92
2018-02-16T09:53:32.407Z,19.33
2018-02-16T09:55:59.869Z,17.98
2018-02-16T09:58:27.333Z,17.48
2018-02-16T10:00:54.811Z,15.38
2018-02-16T10:03:22.281Z,13.43
2018-02-16T10:05:51.323Z,13.98
2018-02-16T10:08:18.794Z,14.77
2018-02-16T10:10:46.238Z,14.25
2018-02-16T10:13:13.724Z,15.95
2018-02-16T10:15:41.209Z,14.98
2018-02-16T10:18:08.698Z,14.77
2018-02-16T10:20:36.169Z,14.87
2018-02-16T10:23:03.649Z,14.73
2018-02-16T10:25:31.114Z,13.60
2018-02-16T10:27:58.580Z,14.50
2018-02-16T10:30:26.043Z,13.55
2018-02-16T10:32:53.505Z,12.90
2018-02-16T10:35:21.013Z,12.70
2018-02-16T10:37:48.462Z,11.35
2018-02-16T10:40:15.941Z,11.68
2018-02-16T10:42:43.412Z,11.60
2018-02-16T10:45:10.880Z,11.93
2018-02-16T10:47:38.371Z,12.02
2018-02-16T10:50:05.846Z,12.20
2018-02-16T10:52:33.300Z,11.85
2018-02-16T10:55:00.774Z,13.23
2018-02-16T10:57:28.241Z,12.90
2018-02-16T10:59:56.518Z,11.00
2018-02-16T11:02:29.660Z,11.93
2018-02-16T11:05:02.825Z,12.00
2018-02-16T11:10:37.331Z,10.50
2018-02-16T11:13:05.240Z,10.90
2018-02-16T11:15:33.124Z,12.40
2018-02-16T11:18:01.039Z,11.63
2018-02-16T11:20:30.896Z,12.85
2018-02-16T11:23:01.355Z,13.18
2018-02-16T11:25:29.079Z,11.75
2018-02-16T11:27:56.954Z,11.93
2018-02-16T11:30:24.488Z,10.82
2018-02-16T11:32:51.962Z,11.65
2018-02-16T11:35:19.427Z,11.23
2018-02-16T11:37:46.905Z,10.98
2018-02-16T11:40:14.512Z,10.13
2018-02-16T11:42:41.854Z,10.90
2018-02-16T11:45:09.344Z,10.32
2018-02-16T11:47:36.836Z,9.10
2018-02-16T11:50:04.327Z,10.27
2018-02-16T11:52:32.567Z,9.48
2018-02-16T11:55:00.050Z,9.65
2018-02-16T11:57:27.525Z,9.50
2018-02-16T11:59:55.773Z,7.72
2018-02-16T12:02:23.268Z,8.60
2018-02-16T12:04:50.749Z,8.68
2018-02-16T12:07:18.240Z,8.02
2018-02-16T12:09:45.716Z,9.10
2018-02-16T12:12:13.225Z,8.57
2018-02-16T12:14:40.701Z,7.40
2018-02-16T12:17:08.164Z,7.30
2018-02-16T12:19:35.636Z,8.63
2018-02-16T12:22:03.136Z,7.60
2018-02-16T12:24:30.597Z,7.28
2018-02-16T12:26:58.074Z,7.82
2018-02-16T12:29:25.572Z,8.95
2018-02-16T12:31:53.056Z,7.35
2018-02-16T12:34:20.513Z,7.93
2018-02-16T12:36:48.002Z,7.55
2018-02-16T12:39:15.473Z,7.68
2018-02-16T12:41:42.952Z,7.47
2018-02-16T12:44:10.418Z,7.75
2018-02-16T12:46:37.918Z,7.57
2018-02-16T12:49:05.390Z,7.60
2018-02-16T12:51:32.881Z,7.90
2018-02-16T12:54:00.372Z,6.62
2018-02-16T12:56:27.850Z,8.77
2018-02-16T12:58:55.354Z,6.80
2018-02-16T13:01:22.860Z,6.25
2018-02-16T13:03:51.061Z,6.37
2018-02-16T13:06:18.529Z,7.00
2018-02-16T13:08:46.021Z,6.82
2018-02-16T13:11:13.511Z,7.57
2018-02-16T13:13:41.015Z,7.37
2018-02-16T13:16:08.482Z,7.85
2018-02-16T13:18:35.946Z,6.55
2018-02-16T13:21:04.186Z,6.22
2018-02-16T13:23:31.662Z,7.35
2018-02-16T13:25:59.183Z,5.70
2018-02-16T13:28:26.609Z,6.15
2018-02-16T13:30:54.118Z,7.68
2018-02-16T13:33:21.635Z,9.30
2018-02-16T13:35:49.113Z,6.40
2018-02-16T13:38:16.589Z,7.68
2018-02-16T13:40:44.089Z,7.82
2018-02-16T13:43:11.581Z,7.25
2018-02-16T13:45:39.063Z,6.40
2018-02-16T13:48:06.584Z,7.10
2018-02-16T13:50:34.085Z,6.80
2018-02-16T13:53:01.560Z,7.28
2018-02-16T13:55:29.026Z,7.12
2018-02-16T13:57:56.498Z,6.97
2018-02-16T14:00:23.972Z,7.05
2018-02-16T14:02:51.485Z,7.43
2018-02-16T14:05:18.986Z,6.75
2018-02-16T14:07:46.456Z,8.40
2018-02-16T14:10:13.935Z,7.50
2018-02-16T14:12:41.426Z,6.62
2018-02-16T14:15:08.905Z,6.30
2018-02-16T14:17:36.371Z,6.95
2018-02-16T14:20:03.864Z,7.25
2018-02-16T14:22:31.320Z,5.90
2018-02-16T14:24:58.793Z,6.15
2018-02-16T14:27:26.241Z,6.60
2018-02-16T14:29:53.745Z,5.78
2018-02-16T14:32:21.221Z,6.10
2018-02-16T14:34:48.747Z,5.00
2018-02-16T14:37:16.196Z,5.18
2018-02-16T14:39:43.651Z,7.50
2018-02-16T14:42:11.134Z,5.82
2018-02-16T14:44:38.617Z,5.80
2018-02-16T14:47:06.069Z,6.12
2018-02-16T14:49:33.526Z,5.37
2018-02-16T14:52:01.007Z,4.57
2018-02-16T14:54:28.479Z,5.05
2018-02-16T14:56:55.951Z,5.03
2018-02-16T14:59:23.419Z,4.25
2018-02-16T15:01:50.894Z,4.18
2018-02-16T15:04:18.424Z,5.47
2018-02-16T15:06:45.909Z,4.78
2018-02-16T15:09:13.440Z,4.75
2018-02-16T15:11:40.902Z,3.97
2018-02-16T15:14:09.154Z,6.65
2018-02-16T15:16:36.621Z,4.72
2018-02-16T15:19:04.117Z,3.97
2018-02-16T15:21:31.582Z,4.30
2018-02-16T15:23:59.045Z,5.45
2018-02-16T15:26:26.513Z,4.75
2018-02-16T15:28:53.974Z,3.83
2018-02-16T15:31:21.431Z,4.40
2018-02-16T15:33:48.907Z,5.03
2018-02-16T15:36:16.408Z,5.18
2018-02-16T15:38:44.638Z,4.90
2018-02-16T15:41:12.096Z,4.15
2018-02-16T15:43:39.557Z,6.65
2018-02-16T15:46:07.059Z,4.95
2018-02-16T15:48:34.517Z,4.87
2018-02-16T15:51:01.978Z,5.15
2018-02-16T15:53:29.461Z,5.37
2018-02-16T15:55:56.917Z,5.03
2018-02-16T15:58:24.392Z,4.62
2018-02-16T16:00:52.445Z,4.62
2018-02-16T16:03:19.910Z,4.28
2018-02-16T16:05:47.388Z,4.55
2018-02-16T16:08:14.853Z,4.28
2018-02-16T16:10:42.303Z,4.82
2018-02-16T16:13:09.774Z,4.30
2018-02-16T16:15:37.289Z,5.75
2018-02-16T16:18:04.775Z,4.47
2018-02-16T16:20:32.256Z,4.95
2018-02-16T16:22:59.718Z,4.75
2018-02-16T16:25:27.210Z,4.75
2018-02-16T16:27:54.693Z,5.65
2018-02-16T16:30:22.150Z,4.97
2018-02-16T16:32:49.630Z,3.87
2018-02-16T16:35:17.089Z,3.60
2018-02-16T16:37:44.633Z,4.87
2018-02-16T16:40:12.105Z,5.05
2018-02-16T16:42:39.560Z,4.97
2018-02-16T16:45:07.040Z,4.57
2018-02-16T16:47:34.511Z,5.37
2018-02-16T16:50:01.978Z,4.10
2018-02-16T16:52:29.436Z,3.72
2018-02-16T16:54:56.897Z,4.30
2018-02-16T16:57:24.365Z,3.72
2018-02-16T16:59:51.830Z,3.37
2018-02-16T17:02:19.364Z,4.72
2018-02-16T17:04:46.837Z,5.03
2018-02-16T17:07:14.298Z,5.25
2018-02-16T17:09:41.738Z,4.25
2018-02-16T17:12:09.194Z,4.60
2018-02-16T17:14:37.458Z,4.65
2018-02-16T17:17:04.988Z,4.60
2018-02-16T17:19:32.759Z,5.50
2018-02-16T17:22:01.081Z,5.05
2018-02-16T17:24:28.564Z,4.72
2018-02-16T17:26:56.054Z,6.05
2018-02-16T17:29:24.291Z,6.55
2018-02-16T17:31:51.815Z,5.00
2018-02-16T17:34:19.451Z,4.72
2018-02-16T17:36:48.178Z,4.85
2018-02-16T17:39:15.666Z,4.60
2018-02-16T17:41:43.136Z,5.07
2018-02-16T17:44:12.242Z,4.80
2018-02-16T17:46:39.810Z,4.93
2018-02-16T17:49:07.399Z,5.20
2018-02-16T17:51:34.873Z,6.40
2018-02-16T17:54:02.357Z,5.60
2018-02-16T17:56:29.821Z,7.87
2018-02-16T17:58:57.294Z,5.37
2018-02-16T18:01:24.770Z,6.85
2018-02-16T18:03:52.237Z,6.78
2018-02-16T18:06:19.690Z,4.85
2018-02-16T18:08:47.169Z,5.62
2018-02-16T18:11:14.660Z,6.75
2018-02-16T18:13:42.129Z,5.82
2018-02-16T18:16:09.577Z,6.68
2018-02-16T18:18:37.801Z,5.07
2018-02-16T18:21:05.259Z,6.00
2018-02-16T18:23:32.729Z,4.97
2018-02-16T18:26:00.211Z,4.00
2018-02-16T18:28:27.682Z,4.78
2018-02-16T18:30:55.899Z,4.95
2018-02-16T18:33:23.358Z,5.37
2018-02-16T18:35:50.856Z,4.53
2018-02-16T18:38:18.344Z,4.78
2018-02-16T18:40:45.801Z,5.03
2018-02-16T18:43:13.287Z,6.12
2018-02-16T18:45:40.758Z,5.32
2018-02-16T18:48:08.222Z,5.70
2018-02-16T18:50:35.702Z,4.78
2018-02-16T18:53:03.181Z,6.15
2018-02-16T18:55:31.410Z,6.18
2018-02-16T18:57:58.895Z,4.95
2018-02-16T19:00:27.133Z,6.62
2018-02-16T19:02:54.607Z,4.80
2018-02-16T19:05:22.110Z,5.10
2018-02-16T19:07:49.625Z,4.85
2018-02-16T19:10:17.879Z,6.10
2018-02-16T19:12:46.532Z,5.40
2018-02-16T19:15:14.696Z,5.20
2018-02-16T19:17:42.272Z,6.00
2018-02-16T19:20:09.931Z,5.05
2018-02-16T19:22:37.403Z,4.90
2018-02-16T19:25:05.045Z,5.18
2018-02-16T19:27:32.540Z,5.70
2018-02-16T19:30:00.063Z,5.43
2018-02-16T19:32:27.625Z,4.18
2018-02-16T19:34:56.027Z,6.43
2018-02-16T19:37:23.607Z,5.65
2018-02-16T19:39:51.415Z,4.57
2018-02-16T19:42:19.168Z,6.00
2018-02-16T19:44:46.662Z,4.00
2018-02-16T19:47:14.546Z,5.55
2018-02-16T19:49:42.065Z,5.78
2018-02-16T19:52:09.526Z,4.97
2018-02-16T19:54:37.007Z,5.37
2018-02-16T19:57:04.475Z,5.30
2018-02-16T19:59:32.365Z,6.90
2018-02-16T20:01:59.906Z,6.35
2018-02-16T20:04:27.367Z,6.65
2018-02-16T20:06:54.829Z,5.12
2018-02-16T20:09:22.857Z,4.85
2018-02-16T20:11:51.179Z,4.97
2018-02-16T20:14:18.679Z,5.85
2018-02-16T20:16:46.226Z,5.40
2018-02-16T20:19:13.808Z,4.40
2018-02-16T20:21:41.286Z,5.68
2018-02-16T20:24:08.799Z,4.47
2018-02-16T20:26:37.015Z,5.22
2018-02-16T20:29:04.781Z,5.68
2018-02-16T20:31:33.389Z,4.95
2018-02-16T20:34:00.926Z,5.12
2018-02-16T20:36:28.401Z,5.43
2018-02-16T20:38:55.894Z,5.00
2018-02-16T20:41:23.700Z,6.18
2018-02-16T20:43:52.090Z,4.37
2018-02-16T20:46:19.571Z,4.95
2018-02-16T20:48:47.038Z,6.10
2018-02-16T20:51:14.505Z,6.75
2018-02-16T20:53:42.733Z,5.70
2018-02-16T20:56:10.212Z,5.25
2018-02-16T20:58:37.677Z,5.72
2018-02-16T21:01:06.025Z,6.57
2018-02-16T21:03:33.496Z,6.15
2018-02-16T21:06:00.985Z,6.10
2018-02-16T21:08:29.238Z,5.47
2018-02-16T21:10:56.710Z,5.60
2018-02-16T21:13:24.169Z,5.22
2018-02-16T21:15:51.629Z,4.97
2018-02-16T21:18:19.094Z,5.82
2018-02-16T21:20:46.572Z,6.07
2018-02-16T21:23:14.041Z,5.72
2018-02-16T21:25:41.509Z,5.78
2018-02-16T21:28:08.994Z,5.95
2018-02-16T21:30:36.451Z,6.25
2018-02-16T21:33:03.906Z,7.40
2018-02-16T21:35:31.361Z,6.05
2018-02-16T21:37:58.841Z,5.50
2018-02-16T21:40:26.309Z,6.43
2018-02-16T21:42:53.777Z,8.27
2018-02-16T21:45:21.238Z,6.25
2018-02-16T21:47:48.707Z,6.30
2018-02-16T21:50:16.178Z,6.18
2018-02-16T21:52:43.643Z,6.03
2018-02-16T21:55:11.106Z,7.85
2018-02-16T21:57:38.567Z,6.72
2018-02-16T22:00:06.029Z,6.62
2018-02-16T22:02:33.498Z,6.45
2018-02-16T22:05:00.939Z,7.53
2018-02-16T22:07:28.411Z,5.10
2018-02-16T22:09:55.876Z,6.32
2018-02-16T22:12:23.330Z,5.90
2018-02-16T22:14:50.797Z,5.80
2018-02-16T22:17:18.249Z,5.00
2018-02-16T22:19:45.691Z,5.53
2018-02-16T22:22:13.140Z,7.50
2018-02-16T22:24:40.609Z,5.50
2018-02-16T22:27:08.065Z,4.43
2018-02-16T22:29:35.618Z,6.30
2018-02-16T22:32:03.085Z,7.40
2018-02-16T22:34:30.559Z,8.18
2018-02-16T22:36:58.788Z,6.00
2018-02-16T22:39:26.246Z,6.30
2018-02-16T22:41:53.706Z,7.47
2018-02-16T22:44:21.170Z,5.87
2018-02-16T22:46:48.638Z,5.50
2018-02-16T22:49:16.104Z,6.87
2018-02-16T22:51:43.577Z,6.50
2018-02-16T22:54:11.813Z,6.65
2018-02-16T22:56:39.289Z,7.95
2018-02-16T22:59:06.751Z,6.37
2018-02-16T23:01:34.211Z,5.95
2018-02-16T23:04:02.446Z,7.78
2018-02-16T23:06:29.913Z,6.78
2018-02-16T23:08:57.393Z,5.93
2018-02-16T23:11:24.841Z,6.72
2018-02-16T23:13:52.285Z,5.85
2018-02-16T23:16:19.748Z,7.12
2018-02-16T23:18:47.196Z,6.85
2018-02-16T23:21:14.642Z,5.97
2018-02-16T23:23:42.117Z,7.47
2018-02-16T23:26:09.583Z,7.15
2018-02-16T23:28:37.073Z,7.70
2018-02-16T23:31:04.548Z,7.55
2018-02-16T23:33:32.040Z,7.18
2018-02-16T23:35:59.508Z,7.90
2018-02-16T23:38:26.987Z,7.45
2018-02-16T23:40:55.249Z,6.57
2018-02-16T23:43:22.685Z,6.12
2018-02-16T23:45:50.958Z,6.60
2018-02-16T23:48:19.216Z,6.90
2018-02-16T23:50:46.687Z,6.78
2018-02-16T23:53:14.925Z,6.62
2018-02-16T23:55:42.385Z,8.35
2018-02-16T23:58:09.854Z,6.75
